createdAt,value
2017-09-30T00:00:16.438Z,15.60
2017-09-30T00:02:44.704Z,15.70
2017-09-30T00:05:12.184Z,15.60
2017-09-30T00:07:40.427Z,15.70
2017-09-30T00:10:07.903Z,15.60
2017-09-30T00:12:36.140Z,15.60
2017-09-30T00:15:03.626Z,15.60
2017-09-30T00:17:31.092Z,15.70
2017-09-30T00:19:58.634Z,15.70
2017-09-30T00:22:26.102Z,15.70
2017-09-30T00:24:53.593Z,15.70
2017-09-30T00:27:21.095Z,15.70
2017-09-30T00:29:48.576Z,15.70
2017-09-30T00:32:16.131Z,15.80
2017-09-30T00:34:43.695Z,15.80
2017-09-30T00:37:11.188Z,15.70
2017-09-30T00:39:39.423Z,15.70
2017-09-30T00:42:07.003Z,15.60
2017-09-30T00:44:34.471Z,15.60
2017-09-30T00:47:02.718Z,15.60
2017-09-30T00:49:30.196Z,15.60
2017-09-30T00:51:57.680Z,15.70
2017-09-30T00:54:25.157Z,15.70
2017-09-30T00:56:52.633Z,15.70
2017-09-30T00:59:20.126Z,15.70
2017-09-30T01:01:47.607Z,15.70
2017-09-30T01:04:15.839Z,15.80
2017-09-30T01:06:43.408Z,15.80
2017-09-30T01:09:10.900Z,15.70
2017-09-30T01:11:39.144Z,15.80
2017-09-30T01:14:06.619Z,15.80
2017-09-30T01:16:34.108Z,15.80
2017-09-30T01:19:01.583Z,15.80
2017-09-30T01:21:29.069Z,15.70
2017-09-30T01:23:56.647Z,15.80
2017-09-30T01:26:24.111Z,15.80
2017-09-30T01:28:51.596Z,15.80
2017-09-30T01:31:19.124Z,15.90
2017-09-30T01:33:46.608Z,15.80
2017-09-30T01:36:14.874Z,15.80
2017-09-30T01:38:42.344Z,15.80
2017-09-30T01:41:10.582Z,15.80
2017-09-30T01:43:38.156Z,15.80
2017-09-30T01:46:05.715Z,15.80
2017-09-30T01:48:33.191Z,15.80
2017-09-30T01:51:01.428Z,15.80
2017-09-30T01:53:29.007Z,15.80
2017-09-30T01:55:56.481Z,15.80
2017-09-30T01:58:24.031Z,15.80
2017-09-30T02:00:51.496Z,15.70
2017-09-30T02:03:18.980Z,15.70
2017-09-30T02:05:46.456Z,15.70
2017-09-30T02:08:13.923Z,15.70
2017-09-30T02:10:41.385Z,15.80
2017-09-30T02:13:08.899Z,15.80
2017-09-30T02:15:37.128Z,15.70
2017-09-30T02:18:04.602Z,15.70
2017-09-30T02:20:32.158Z,15.70
2017-09-30T02:22:59.642Z,15.80
2017-09-30T02:25:27.108Z,15.80
2017-09-30T02:27:55.358Z,15.80
2017-09-30T02:30:29.387Z,15.80
2017-09-30T02:32:56.866Z,15.70
2017-09-30T02:35:25.103Z,15.70
2017-09-30T02:37:52.569Z,15.70
2017-09-30T02:40:20.050Z,15.70
2017-09-30T02:42:48.282Z,15.70
2017-09-30T02:45:15.858Z,15.70
2017-09-30T02:47:43.322Z,15.70
2017-09-30T02:50:10.804Z,15.60
2017-09-30T02:52:39.030Z,15.70
2017-09-30T02:55:06.498Z,15.70
2017-09-30T02:57:34.070Z,15.70
2017-09-30T03:00:03.059Z,15.60
2017-09-30T03:02:30.628Z,15.70
2017-09-30T03:04:58.104Z,15.60
2017-09-30T03:07:25.647Z,15.60
2017-09-30T03:09:53.119Z,15.50
2017-09-30T03:12:20.592Z,15.50
2017-09-30T03:14:48.822Z,15.50
2017-09-30T03:17:16.303Z,15.50
2017-09-30T03:19:43.859Z,15.50
2017-09-30T03:22:11.417Z,15.50
2017-09-30T03:24:38.979Z,15.50
2017-09-30T03:27:06.450Z,15.50
2017-09-30T03:29:33.911Z,15.50
2017-09-30T03:32:01.390Z,15.50
2017-09-30T03:34:28.910Z,15.40
2017-09-30T03:36:57.156Z,15.40
2017-09-30T03:39:24.620Z,15.40
2017-09-30T03:41:52.473Z,15.40
2017-09-30T03:44:19.942Z,15.40
2017-09-30T03:46:47.532Z,15.40
2017-09-30T03:49:15.091Z,15.40
2017-09-30T03:51:42.649Z,15.40
2017-09-30T03:54:10.487Z,15.40
2017-09-30T03:56:37.979Z,15.40
2017-09-30T03:59:05.456Z,15.40
2017-09-30T04:01:33.004Z,15.40
2017-09-30T04:04:00.466Z,15.40
2017-09-30T04:06:27.960Z,15.40
2017-09-30T04:08:55.425Z,15.40
2017-09-30T04:11:22.964Z,15.30
2017-09-30T04:13:51.188Z,15.20
2017-09-30T04:16:18.668Z,15.20
2017-09-30T04:18:46.206Z,15.30
2017-09-30T04:21:13.687Z,15.20
2017-09-30T04:23:42.656Z,15.30
2017-09-30T04:26:10.132Z,15.30
2017-09-30T04:28:37.624Z,15.30
2017-09-30T04:31:05.887Z,15.30
2017-09-30T04:33:33.360Z,15.30
2017-09-30T04:36:01.604Z,15.20
2017-09-30T04:38:29.076Z,15.20
2017-09-30T04:40:56.548Z,15.20
2017-09-30T04:43:24.777Z,15.40
2017-09-30T04:45:52.237Z,15.40
2017-09-30T04:48:19.715Z,15.50
2017-09-30T04:50:47.279Z,15.50
2017-09-30T04:53:14.755Z,15.40
2017-09-30T04:55:42.237Z,15.50
2017-09-30T04:58:09.966Z,15.40
2017-09-30T05:00:37.432Z,15.50
2017-09-30T05:03:04.902Z,15.60
2017-09-30T05:05:33.263Z,15.70
2017-09-30T05:08:00.824Z,15.70
2017-09-30T05:10:28.283Z,15.70
2017-09-30T05:12:55.834Z,15.70
2017-09-30T05:15:29.634Z,15.80
2017-09-30T05:17:57.408Z,15.70
2017-09-30T05:20:26.315Z,15.70
2017-09-30T05:22:54.987Z,15.80
2017-09-30T05:25:22.827Z,15.80
2017-09-30T05:27:50.320Z,15.80
2017-09-30T05:30:17.870Z,15.80
2017-09-30T05:32:46.112Z,15.90
2017-09-30T05:35:13.578Z,15.90
2017-09-30T05:37:41.261Z,15.90
2017-09-30T05:40:08.735Z,16.00
2017-09-30T05:42:36.295Z,16.00
2017-09-30T05:45:03.763Z,16.00
2017-09-30T05:47:32.017Z,16.00
2017-09-30T05:49:59.499Z,16.00
2017-09-30T05:52:27.754Z,15.90
2017-09-30T05:54:55.306Z,15.90
2017-09-30T05:57:23.175Z,15.80
2017-09-30T05:59:50.650Z,15.90
2017-09-30T06:02:18.128Z,15.90
2017-09-30T06:04:46.372Z,16.00
2017-09-30T06:07:13.843Z,16.00
2017-09-30T06:09:41.402Z,16.10
2017-09-30T06:12:08.880Z,16.10
2017-09-30T06:14:37.123Z,16.10
2017-09-30T06:17:17.284Z,16.10
2017-09-30T06:19:45.534Z,16.00
2017-09-30T06:22:13.023Z,16.00
2017-09-30T06:24:40.497Z,16.10
2017-09-30T06:27:08.042Z,16.20
2017-09-30T06:29:35.526Z,16.20
2017-09-30T06:32:03.754Z,16.20
2017-09-30T06:34:31.223Z,16.10
2017-09-30T06:36:58.800Z,16.20
2017-09-30T06:39:26.275Z,16.10
2017-09-30T06:41:54.531Z,16.20
2017-09-30T06:44:21.997Z,16.20
2017-09-30T06:46:49.472Z,16.20
2017-09-30T06:49:17.716Z,16.30
2017-09-30T06:51:45.195Z,16.20
2017-09-30T06:54:13.455Z,16.40
2017-09-30T06:56:40.926Z,16.40
2017-09-30T06:59:08.394Z,16.40
2017-09-30T07:01:36.643Z,16.50
2017-09-30T07:04:04.125Z,16.50
2017-09-30T07:06:31.679Z,16.60
2017-09-30T07:08:59.160Z,16.70
2017-09-30T07:11:27.506Z,16.80
2017-09-30T07:13:54.978Z,16.80
2017-09-30T07:16:22.539Z,16.80
2017-09-30T07:18:50.763Z,16.90
2017-09-30T07:21:18.257Z,16.80
2017-09-30T07:23:46.067Z,16.90
2017-09-30T07:26:14.304Z,16.90
2017-09-30T07:28:41.786Z,16.90
2017-09-30T07:31:09.282Z,17.00
2017-09-30T07:33:36.760Z,17.00
2017-09-30T07:36:04.243Z,17.00
2017-09-30T07:38:31.742Z,17.10
2017-09-30T07:40:59.264Z,17.10
2017-09-30T07:43:26.926Z,17.20
2017-09-30T07:45:54.390Z,17.20
2017-09-30T07:48:21.869Z,17.30
2017-09-30T07:50:50.091Z,17.40
2017-09-30T07:53:17.574Z,17.40
2017-09-30T07:55:45.039Z,17.30
2017-09-30T07:58:13.297Z,17.40
2017-09-30T08:00:40.767Z,17.40
2017-09-30T08:03:08.326Z,17.40
2017-09-30T08:05:36.607Z,17.50
2017-09-30T08:08:04.163Z,17.50
2017-09-30T08:10:31.626Z,17.50
2017-09-30T08:12:59.185Z,17.40
2017-09-30T08:15:26.734Z,17.40
2017-09-30T08:17:54.299Z,17.50
2017-09-30T08:20:21.771Z,17.40
2017-09-30T08:22:49.317Z,17.50
2017-09-30T08:25:16.816Z,17.60
2017-09-30T08:27:44.299Z,17.60
2017-09-30T08:30:11.766Z,17.70
2017-09-30T08:32:39.256Z,17.70
2017-09-30T08:35:06.750Z,17.70
2017-09-30T08:37:34.992Z,17.70
2017-09-30T08:40:02.486Z,17.70
2017-09-30T08:42:29.945Z,17.70
2017-09-30T08:44:57.442Z,17.70
2017-09-30T08:47:24.927Z,17.70
2017-09-30T08:49:52.411Z,17.80
2017-09-30T08:52:20.718Z,17.70
2017-09-30T08:54:48.188Z,17.70
2017-09-30T08:57:15.660Z,17.60
2017-09-30T08:59:43.240Z,17.60
2017-09-30T09:02:10.803Z,17.60
2017-09-30T09:04:38.278Z,17.60
2017-09-30T09:07:06.515Z,17.40
2017-09-30T09:09:33.985Z,17.30
2017-09-30T09:12:01.464Z,17.30
2017-09-30T09:14:28.939Z,17.20
2017-09-30T09:16:57.195Z,17.20
2017-09-30T09:19:24.756Z,17.20
2017-09-30T09:21:52.222Z,17.30
2017-09-30T09:24:19.703Z,17.40
2017-09-30T09:26:47.187Z,17.50
2017-09-30T09:29:14.688Z,17.60
2017-09-30T09:31:42.214Z,17.70
2017-09-30T09:34:09.693Z,17.80
2017-09-30T09:36:37.202Z,17.80
2017-09-30T09:39:04.693Z,17.80
2017-09-30T09:41:32.186Z,17.90
2017-09-30T09:43:59.655Z,17.90
2017-09-30T09:46:27.895Z,18.00
2017-09-30T09:48:55.371Z,18.00
2017-09-30T09:51:22.847Z,18.10
2017-09-30T09:53:51.114Z,18.30
2017-09-30T09:56:18.679Z,18.30
2017-09-30T09:58:46.235Z,18.30
2017-09-30T10:01:13.787Z,18.30
2017-09-30T10:03:41.403Z,18.30
2017-09-30T10:06:08.888Z,18.40
2017-09-30T10:08:36.355Z,18.50
2017-09-30T10:11:03.934Z,18.60
2017-09-30T10:13:31.487Z,18.50
2017-09-30T10:15:58.970Z,18.50
2017-09-30T10:18:27.207Z,18.70
2017-09-30T10:20:54.689Z,18.70
2017-09-30T10:23:22.192Z,18.70
2017-09-30T10:25:49.703Z,18.80
2017-09-30T10:28:17.204Z,18.90
2017-09-30T10:30:44.690Z,18.90
2017-09-30T10:33:12.191Z,19.10
2017-09-30T10:35:41.271Z,19.20
2017-09-30T10:38:08.826Z,19.30
2017-09-30T10:40:36.391Z,19.30
2017-09-30T10:43:03.866Z,19.30
2017-09-30T10:45:32.112Z,19.40
2017-09-30T10:47:59.578Z,19.40
2017-09-30T10:50:27.058Z,19.40
2017-09-30T10:52:54.531Z,19.50
2017-09-30T10:55:22.031Z,19.70
2017-09-30T10:57:49.518Z,19.80
2017-09-30T11:00:17.006Z,19.80
2017-09-30T11:02:45.256Z,20.10
2017-09-30T11:05:12.819Z,20.10
2017-09-30T11:07:40.290Z,20.20
2017-09-30T11:10:07.773Z,20.30
2017-09-30T11:12:36.015Z,20.40
2017-09-30T11:15:03.481Z,20.40
2017-09-30T11:17:31.751Z,20.50
2017-09-30T11:19:59.226Z,20.50
2017-09-30T11:22:27.488Z,20.60
2017-09-30T11:24:55.036Z,20.60
2017-09-30T11:27:22.544Z,20.60
2017-09-30T11:29:50.007Z,20.70
2017-09-30T11:32:25.007Z,20.80
2017-09-30T11:34:52.477Z,20.80
2017-09-30T11:37:20.825Z,20.90
2017-09-30T11:39:48.309Z,20.90
2017-09-30T11:42:15.790Z,21.00
2017-09-30T11:44:43.301Z,20.90
2017-09-30T11:47:10.774Z,21.00
2017-09-30T11:49:38.247Z,21.00
2017-09-30T11:52:06.478Z,21.20
2017-09-30T11:54:33.979Z,21.20
2017-09-30T11:57:02.273Z,21.30
2017-09-30T11:59:30.510Z,21.30
2017-09-30T12:01:58.366Z,21.30
2017-09-30T12:04:25.842Z,21.30
2017-09-30T12:06:54.085Z,21.50
2017-09-30T12:09:21.593Z,21.50
2017-09-30T12:11:49.058Z,21.40
2017-09-30T12:14:17.322Z,21.40
2017-09-30T12:16:44.786Z,21.40
2017-09-30T12:19:12.274Z,21.30
2017-09-30T12:21:39.735Z,21.30
2017-09-30T12:24:07.213Z,21.30
2017-09-30T12:26:34.978Z,21.40
2017-09-30T12:29:02.466Z,21.30
2017-09-30T12:31:30.027Z,21.20
2017-09-30T12:33:57.591Z,21.20
2017-09-30T12:36:25.223Z,21.20
2017-09-30T12:38:52.714Z,21.10
2017-09-30T12:41:20.288Z,21.10
2017-09-30T12:43:47.770Z,21.10
2017-09-30T12:46:15.293Z,21.10
2017-09-30T12:48:42.866Z,21.10
2017-09-30T12:51:10.359Z,21.10
2017-09-30T12:53:38.579Z,21.20
2017-09-30T12:56:06.069Z,21.20
2017-09-30T12:58:33.527Z,21.20
2017-09-30T13:01:01.795Z,21.30
2017-09-30T13:03:29.260Z,21.30
2017-09-30T13:05:57.532Z,21.30
2017-09-30T13:08:25.083Z,21.30
2017-09-30T13:10:52.558Z,21.30
2017-09-30T13:13:20.803Z,21.60
2017-09-30T13:15:48.286Z,21.50
2017-09-30T13:18:15.739Z,21.60
2017-09-30T13:20:43.220Z,21.60
2017-09-30T13:23:11.471Z,21.70
2017-09-30T13:25:39.702Z,21.70
2017-09-30T13:28:07.171Z,21.80
2017-09-30T13:30:34.648Z,21.70
2017-09-30T13:33:02.143Z,21.60
2017-09-30T13:35:30.879Z,21.50
2017-09-30T13:37:58.331Z,21.50
2017-09-30T13:40:25.785Z,21.50
2017-09-30T13:42:53.288Z,21.50
2017-09-30T13:45:20.786Z,21.50
2017-09-30T13:47:48.302Z,21.40
2017-09-30T13:50:16.900Z,21.40
2017-09-30T13:52:44.405Z,21.40
2017-09-30T13:55:11.910Z,21.40
2017-09-30T13:57:39.463Z,21.40
2017-09-30T14:00:07.020Z,21.40
2017-09-30T14:02:34.492Z,21.40
2017-09-30T14:05:02.050Z,21.40
2017-09-30T14:07:29.520Z,21.40
2017-09-30T14:09:56.993Z,21.30
2017-09-30T14:12:25.239Z,21.30
2017-09-30T14:14:52.811Z,21.30
2017-09-30T14:17:20.268Z,21.20
2017-09-30T14:19:47.813Z,21.20
2017-09-30T14:22:16.140Z,21.10
2017-09-30T14:24:43.593Z,21.00
2017-09-30T14:27:11.115Z,21.00
2017-09-30T14:29:38.578Z,21.00
2017-09-30T14:32:06.129Z,20.90
2017-09-30T14:34:33.593Z,21.00
2017-09-30T14:37:01.161Z,21.00
2017-09-30T14:39:28.641Z,21.00
2017-09-30T14:41:56.891Z,21.00
2017-09-30T14:44:24.447Z,21.00
2017-09-30T14:46:51.918Z,21.00
2017-09-30T14:49:19.476Z,20.90
2017-09-30T14:51:46.973Z,20.90
2017-09-30T14:54:14.447Z,20.90
2017-09-30T14:56:41.987Z,20.90
2017-09-30T14:59:09.463Z,20.80
2017-09-30T15:01:36.930Z,20.80
2017-09-30T15:04:04.416Z,20.70
2017-09-30T15:06:31.886Z,20.70
2017-09-30T15:08:59.446Z,20.70
2017-09-30T15:11:27.010Z,20.70
2017-09-30T15:13:54.499Z,20.70
2017-09-30T15:16:22.727Z,20.60
2017-09-30T15:18:50.299Z,20.60
2017-09-30T15:21:18.323Z,20.50
2017-09-30T15:23:45.832Z,20.60
2017-09-30T15:26:13.387Z,20.60
2017-09-30T15:28:40.869Z,20.70
2017-09-30T15:31:09.128Z,20.60
2017-09-30T15:33:36.616Z,20.60
2017-09-30T15:36:04.871Z,20.50
2017-09-30T15:38:32.360Z,20.50
2017-09-30T15:40:59.835Z,20.50
2017-09-30T15:43:27.339Z,20.40
2017-09-30T15:45:54.804Z,20.40
2017-09-30T15:48:22.367Z,20.30
2017-09-30T15:50:49.917Z,20.30
2017-09-30T15:53:17.379Z,20.30
2017-09-30T15:55:44.859Z,20.30
2017-09-30T15:58:13.099Z,20.10
2017-09-30T16:00:40.569Z,20.10
2017-09-30T16:03:08.035Z,20.20
2017-09-30T16:05:35.633Z,20.20
2017-09-30T16:08:03.872Z,20.10
2017-09-30T16:10:31.433Z,20.10
2017-09-30T16:12:58.882Z,20.10
2017-09-30T16:15:26.446Z,20.10
2017-09-30T16:17:54.015Z,20.00
2017-09-30T16:20:21.508Z,19.90
2017-09-30T16:22:49.017Z,19.90
2017-09-30T16:25:18.003Z,19.80
2017-09-30T16:27:45.476Z,19.80
2017-09-30T16:30:13.760Z,19.80
2017-09-30T16:32:41.310Z,19.80
2017-09-30T16:35:08.807Z,19.70
2017-09-30T16:37:36.275Z,19.60
2017-09-30T16:40:03.778Z,19.60
2017-09-30T16:42:31.255Z,19.60
2017-09-30T16:44:58.730Z,19.50
2017-09-30T16:47:26.979Z,19.40
2017-09-30T16:49:54.479Z,19.40
2017-09-30T16:52:21.962Z,19.40
2017-09-30T16:54:49.572Z,19.40
2017-09-30T16:57:17.850Z,19.40
2017-09-30T16:59:45.406Z,19.40
2017-09-30T17:02:12.950Z,19.30
2017-09-30T17:04:40.519Z,19.30
2017-09-30T17:07:08.078Z,19.30
2017-09-30T17:09:35.539Z,19.30
2017-09-30T17:12:03.027Z,19.30
2017-09-30T17:14:31.253Z,19.30
2017-09-30T17:16:58.745Z,19.30
2017-09-30T17:19:26.209Z,19.30
2017-09-30T17:21:54.471Z,19.30
2017-09-30T17:24:21.955Z,19.20
2017-09-30T17:26:50.322Z,19.30
2017-09-30T17:29:17.871Z,19.30
2017-09-30T17:31:45.421Z,19.20
2017-09-30T17:34:12.886Z,19.10
2017-09-30T17:36:40.366Z,19.10
2017-09-30T17:39:08.594Z,19.10
2017-09-30T17:41:36.071Z,19.00
2017-09-30T17:44:03.540Z,19.10
2017-09-30T17:46:31.094Z,19.10
2017-09-30T17:48:58.658Z,19.10
2017-09-30T17:51:26.131Z,19.00
2017-09-30T17:53:53.599Z,19.00
2017-09-30T17:56:21.855Z,19.10
2017-09-30T17:58:49.331Z,19.10
2017-09-30T18:01:18.445Z,19.10
2017-09-30T18:03:46.007Z,19.10
2017-09-30T18:06:13.488Z,19.10
2017-09-30T18:08:40.987Z,19.10
2017-09-30T18:11:08.466Z,18.90
2017-09-30T18:13:36.697Z,18.70
2017-09-30T18:16:04.178Z,18.70
2017-09-30T18:18:31.634Z,18.70
2017-09-30T18:20:59.191Z,18.60
2017-09-30T18:23:27.458Z,18.50
2017-09-30T18:25:54.939Z,18.30
2017-09-30T18:28:22.397Z,18.20
2017-09-30T18:30:49.919Z,18.00
2017-09-30T18:33:17.392Z,17.90
2017-09-30T18:35:44.847Z,17.80
2017-09-30T18:38:12.353Z,17.70
2017-09-30T18:40:40.599Z,17.30
2017-09-30T18:43:08.063Z,17.20
2017-09-30T18:45:35.551Z,17.00
2017-09-30T18:48:03.795Z,16.60
2017-09-30T18:50:32.787Z,16.40
2017-09-30T18:53:01.034Z,16.50
2017-09-30T18:55:28.510Z,16.50
2017-09-30T18:57:56.214Z,16.40
2017-09-30T19:00:24.447Z,15.90
2017-09-30T19:02:51.931Z,15.80
2017-09-30T19:05:19.470Z,15.80
2017-09-30T19:07:46.938Z,15.70
2017-09-30T19:10:14.416Z,15.60
2017-09-30T19:12:41.891Z,15.60
2017-09-30T19:15:10.125Z,15.60
2017-09-30T19:17:37.699Z,15.60
2017-09-30T19:20:05.255Z,15.50
2017-09-30T19:22:32.737Z,15.50
2017-09-30T19:25:00.964Z,15.30
2017-09-30T19:27:28.434Z,15.20
2017-09-30T19:29:55.907Z,15.10
2017-09-30T19:32:23.366Z,15.00
2017-09-30T19:34:51.627Z,14.80
2017-09-30T19:37:19.079Z,14.80
2017-09-30T19:39:46.762Z,14.80
2017-09-30T19:42:15.139Z,14.90
2017-09-30T19:44:42.659Z,14.80
2017-09-30T19:47:10.127Z,14.90
2017-09-30T19:49:37.655Z,14.90
2017-09-30T19:52:05.188Z,14.80
2017-09-30T19:54:32.730Z,14.80
2017-09-30T19:57:00.306Z,14.70
2017-09-30T19:59:27.849Z,14.80
2017-09-30T20:01:55.314Z,14.80
2017-09-30T20:04:23.551Z,14.80
2017-09-30T20:06:51.010Z,14.80
2017-09-30T20:09:18.488Z,14.80
2017-09-30T20:11:45.964Z,14.90
2017-09-30T20:14:13.450Z,14.90
2017-09-30T20:16:40.926Z,14.90
2017-09-30T20:19:08.415Z,14.80
2017-09-30T20:21:35.863Z,14.80
2017-09-30T20:24:03.331Z,14.70
2017-09-30T20:26:30.824Z,14.80
2017-09-30T20:28:59.055Z,14.70
2017-09-30T20:31:26.518Z,14.70
2017-09-30T20:33:53.986Z,14.60
2017-09-30T20:36:21.464Z,14.50
2017-09-30T20:38:48.927Z,14.50
2017-09-30T20:41:16.470Z,14.50
2017-09-30T20:43:43.931Z,14.40
2017-09-30T20:46:11.394Z,14.50
2017-09-30T20:48:38.858Z,14.50
2017-09-30T20:51:07.105Z,14.40
2017-09-30T20:53:34.583Z,14.40
2017-09-30T20:56:02.055Z,14.40
2017-09-30T20:58:30.287Z,14.40
2017-09-30T21:00:58.524Z,14.30
2017-09-30T21:03:25.991Z,14.30
2017-09-30T21:05:53.463Z,14.30
2017-09-30T21:08:20.932Z,14.30
2017-09-30T21:10:48.470Z,14.20
2017-09-30T21:13:16.031Z,14.20
2017-09-30T21:15:43.485Z,14.20
2017-09-30T21:18:10.947Z,14.20
2017-09-30T21:20:38.415Z,14.20
2017-09-30T21:23:05.882Z,14.20
2017-09-30T21:25:33.426Z,14.30
2017-09-30T21:28:00.887Z,14.30
2017-09-30T21:30:28.438Z,14.20
2017-09-30T21:32:56.005Z,14.30
2017-09-30T21:35:23.466Z,14.30
2017-09-30T21:37:51.034Z,14.20
2017-09-30T21:40:18.498Z,14.20
2017-09-30T21:42:45.958Z,14.10
2017-09-30T21:45:13.414Z,14.20
2017-09-30T21:47:40.891Z,14.10
2017-09-30T21:50:09.115Z,14.00
2017-09-30T21:52:36.592Z,14.00
2017-09-30T21:55:04.047Z,14.00
2017-09-30T21:57:31.622Z,14.00
2017-09-30T21:59:59.182Z,13.90
2017-09-30T22:02:26.717Z,14.00
2017-09-30T22:04:54.187Z,14.00
2017-09-30T22:07:21.661Z,14.00
2017-09-30T22:09:49.119Z,14.10
2017-09-30T22:12:17.359Z,14.10
2017-09-30T22:14:44.841Z,14.10
2017-09-30T22:17:12.420Z,14.20
2017-09-30T22:19:39.884Z,14.30
2017-09-30T22:22:08.137Z,14.20
2017-09-30T22:24:35.606Z,14.20
2017-09-30T22:27:03.152Z,14.20
2017-09-30T22:29:30.710Z,14.10
2017-09-30T22:31:58.447Z,14.10
2017-09-30T22:34:25.918Z,14.10
2017-09-30T22:36:53.375Z,14.10
2017-09-30T22:39:21.674Z,14.10
2017-09-30T22:41:49.299Z,14.10
2017-09-30T22:44:17.480Z,14.20
2017-09-30T22:46:44.955Z,14.20
2017-09-30T22:49:12.533Z,14.10
2017-09-30T22:51:40.086Z,14.20
2017-09-30T22:54:07.557Z,14.20
2017-09-30T22:56:41.784Z,14.10
2017-09-30T22:59:10.015Z,14.00
2017-09-30T23:01:37.499Z,14.00
2017-09-30T23:04:04.968Z,13.90
2017-09-30T23:06:32.455Z,14.00
2017-09-30T23:08:59.950Z,14.00
2017-09-30T23:11:27.412Z,14.00
2017-09-30T23:13:54.986Z,14.00
2017-09-30T23:16:22.567Z,14.10
2017-09-30T23:18:50.034Z,14.10
2017-09-30T23:21:18.263Z,14.10
2017-09-30T23:23:45.762Z,14.10
2017-09-30T23:26:19.045Z,14.00
2017-09-30T23:28:46.494Z,14.00
2017-09-30T23:31:13.976Z,14.00
2017-09-30T23:33:41.430Z,13.90
2017-09-30T23:36:08.898Z,13.80
2017-09-30T23:38:37.127Z,13.80
2017-09-30T23:41:04.645Z,13.80
2017-09-30T23:43:32.867Z,13.70
2017-09-30T23:46:00.374Z,13.70
2017-09-30T23:48:28.598Z,13.70
2017-09-30T23:50:56.063Z,13.60
2017-09-30T23:53:24.845Z,13.60
2017-09-30T23:55:53.249Z,13.80
2017-09-30T23:58:20.717Z,13.70
